createdAt,value
2019-01-08T00:01:17.105Z,5.00
2019-01-08T00:03:45.231Z,4.70
2019-01-08T00:06:13.316Z,4.80
2019-01-08T00:08:41.477Z,4.37
2019-01-08T00:11:09.554Z,4.17
2019-01-08T00:13:37.687Z,5.93
2019-01-08T00:16:05.769Z,5.10
2019-01-08T00:18:33.838Z,5.93
2019-01-08T00:21:01.962Z,6.90
2019-01-08T00:23:30.032Z,3.97
2019-01-08T00:25:58.166Z,5.60
2019-01-08T00:28:26.240Z,7.17
2019-01-08T00:30:54.368Z,7.30
2019-01-08T00:33:22.445Z,15.50
2019-01-08T00:35:50.570Z,10.67
2019-01-08T00:38:18.650Z,8.23
2019-01-08T00:40:46.796Z,5.33
2019-01-08T00:43:14.984Z,5.13
2019-01-08T00:45:43.181Z,5.37
2019-01-08T00:48:11.346Z,5.30
2019-01-08T00:50:39.475Z,6.03
2019-01-08T00:53:07.533Z,4.80
2019-01-08T00:55:35.706Z,4.97
2019-01-08T00:58:03.861Z,4.67
2019-01-08T01:00:31.992Z,5.07
2019-01-08T01:03:00.119Z,5.57
2019-01-08T01:05:28.253Z,6.40
2019-01-08T01:07:56.674Z,6.73
2019-01-08T01:10:24.808Z,8.27
2019-01-08T01:12:52.892Z,6.60
2019-01-08T01:15:21.028Z,6.47
2019-01-08T01:17:49.100Z,6.27
2019-01-08T01:20:17.347Z,5.83
2019-01-08T01:22:45.421Z,4.83
2019-01-08T01:25:13.544Z,6.80
2019-01-08T01:27:41.620Z,3.73
2019-01-08T01:30:09.900Z,5.80
2019-01-08T01:32:38.026Z,5.47
2019-01-08T01:35:06.229Z,6.50
2019-01-08T01:37:34.345Z,5.87
2019-01-08T01:40:02.481Z,5.60
2019-01-08T01:42:30.604Z,5.43
2019-01-08T01:44:58.688Z,5.53
2019-01-08T01:47:26.842Z,5.13
2019-01-08T01:49:55.022Z,5.63
2019-01-08T01:52:23.144Z,5.70
2019-01-08T01:54:51.324Z,6.33
2019-01-08T01:57:19.445Z,7.27
2019-01-08T01:59:47.520Z,4.70
2019-01-08T02:02:15.656Z,5.67
2019-01-08T02:04:43.820Z,5.97
2019-01-08T02:07:11.941Z,6.37
2019-01-08T02:09:40.024Z,5.80
2019-01-08T02:12:08.155Z,5.50
2019-01-08T02:14:36.325Z,6.40
2019-01-08T02:17:04.568Z,6.53
2019-01-08T02:19:32.648Z,6.90
2019-01-08T02:22:00.779Z,6.13
2019-01-08T02:24:29.269Z,6.93
2019-01-08T02:26:57.389Z,7.37
2019-01-08T02:29:25.498Z,7.73
2019-01-08T02:31:53.605Z,5.93
2019-01-08T02:34:21.689Z,4.63
2019-01-08T02:36:49.825Z,6.30
2019-01-08T02:39:17.904Z,6.10
2019-01-08T02:41:46.052Z,5.70
2019-01-08T02:44:14.213Z,7.47
2019-01-08T02:46:42.532Z,4.83
2019-01-08T02:49:10.828Z,7.03
2019-01-08T02:51:38.950Z,7.90
2019-01-08T02:54:07.024Z,7.43
2019-01-08T02:56:35.145Z,7.80
2019-01-08T02:59:03.327Z,5.33
2019-01-08T03:01:31.393Z,5.37
2019-01-08T03:03:59.524Z,6.00
2019-01-08T03:06:27.616Z,7.87
2019-01-08T03:08:55.759Z,5.20
2019-01-08T03:11:23.859Z,5.27
2019-01-08T03:13:51.998Z,6.70
2019-01-08T03:16:20.436Z,5.37
2019-01-08T03:18:48.556Z,6.20
2019-01-08T03:21:16.650Z,6.43
2019-01-08T03:23:44.833Z,8.07
2019-01-08T03:26:13.294Z,5.33
2019-01-08T03:28:41.776Z,5.53
2019-01-08T03:31:10.206Z,6.10
2019-01-08T03:33:38.322Z,7.93
2019-01-08T03:36:06.749Z,6.70
2019-01-08T03:38:34.877Z,7.63
2019-01-08T03:41:02.939Z,6.83
2019-01-08T03:43:31.126Z,5.70
2019-01-08T03:45:59.207Z,5.53
2019-01-08T03:48:27.395Z,5.87
2019-01-08T03:50:55.984Z,6.07
2019-01-08T03:53:24.197Z,8.50
2019-01-08T03:55:52.381Z,6.90
2019-01-08T03:58:20.585Z,7.40
2019-01-08T04:00:48.653Z,6.53
2019-01-08T04:03:16.746Z,7.67
2019-01-08T04:05:44.873Z,6.70
2019-01-08T04:08:13.336Z,5.37
2019-01-08T04:10:41.569Z,6.77
2019-01-08T04:13:09.641Z,9.03
2019-01-08T04:15:37.769Z,6.40
2019-01-08T04:18:05.847Z,6.73
2019-01-08T04:20:33.986Z,6.70
2019-01-08T04:23:02.067Z,6.93
2019-01-08T04:25:30.146Z,7.23
2019-01-08T04:27:58.271Z,7.97
2019-01-08T04:30:26.350Z,5.57
2019-01-08T04:32:54.412Z,8.07
2019-01-08T04:35:22.543Z,6.23
2019-01-08T04:37:50.674Z,7.17
2019-01-08T04:40:18.932Z,8.00
2019-01-08T04:42:47.014Z,6.23
2019-01-08T04:45:15.091Z,7.93
2019-01-08T04:47:43.223Z,11.37
2019-01-08T04:50:11.344Z,7.80
2019-01-08T04:52:39.934Z,8.00
2019-01-08T04:55:08.119Z,8.60
2019-01-08T04:57:36.267Z,9.13
2019-01-08T05:00:05.402Z,8.33
2019-01-08T05:02:33.480Z,6.97
2019-01-08T05:05:01.610Z,6.37
2019-01-08T05:07:29.681Z,8.13
2019-01-08T05:09:57.812Z,6.20
2019-01-08T05:12:25.989Z,8.33
2019-01-08T05:14:54.107Z,7.30
2019-01-08T05:17:22.205Z,8.03
2019-01-08T05:19:50.325Z,8.07
2019-01-08T05:22:18.401Z,6.60
2019-01-08T05:24:46.516Z,7.93
2019-01-08T05:27:14.599Z,7.53
2019-01-08T05:29:42.721Z,11.30
2019-01-08T05:32:10.848Z,10.43
2019-01-08T05:34:38.964Z,8.83
2019-01-08T05:37:07.304Z,6.40
2019-01-08T05:39:35.429Z,6.97
2019-01-08T05:42:03.496Z,8.97
2019-01-08T05:44:31.717Z,10.23
2019-01-08T05:46:59.780Z,8.47
2019-01-08T05:49:28.165Z,9.97
2019-01-08T05:51:56.260Z,6.40
2019-01-08T05:54:24.368Z,7.93
2019-01-08T05:56:52.441Z,7.07
2019-01-08T05:59:20.601Z,8.37
2019-01-08T06:01:49.007Z,9.20
2019-01-08T06:04:17.332Z,7.87
2019-01-08T06:06:45.444Z,9.00
2019-01-08T06:09:13.510Z,10.80
2019-01-08T06:11:41.627Z,13.80
2019-01-08T06:14:09.789Z,7.03
2019-01-08T06:16:37.904Z,7.40
2019-01-08T06:19:05.957Z,6.93
2019-01-08T06:21:34.160Z,34.40
2019-01-08T06:24:02.228Z,17.47
2019-01-08T06:26:30.711Z,11.00
2019-01-08T06:28:58.885Z,11.67
2019-01-08T06:31:27.304Z,9.73
2019-01-08T06:33:55.421Z,8.77
2019-01-08T06:36:23.484Z,12.40
2019-01-08T06:38:51.613Z,10.30
2019-01-08T06:41:19.673Z,9.40
2019-01-08T06:43:47.773Z,6.33
2019-01-08T06:46:16.068Z,7.30
2019-01-08T06:48:44.187Z,6.67
2019-01-08T06:51:12.296Z,9.80
2019-01-08T06:53:40.421Z,6.30
2019-01-08T06:56:08.493Z,9.17
2019-01-08T06:58:36.557Z,7.87
2019-01-08T07:01:04.788Z,7.87
2019-01-08T07:03:32.852Z,5.37
2019-01-08T07:06:00.916Z,8.17
2019-01-08T07:08:29.630Z,9.83
2019-01-08T07:10:57.796Z,9.03
2019-01-08T07:13:25.877Z,7.27
2019-01-08T07:15:54.084Z,9.47
2019-01-08T07:18:22.156Z,7.77
2019-01-08T07:20:50.977Z,6.77
2019-01-08T07:23:19.442Z,6.70
2019-01-08T07:25:48.299Z,8.30
2019-01-08T07:28:16.993Z,7.10
2019-01-08T07:30:45.921Z,8.43
2019-01-08T07:33:14.249Z,5.87
2019-01-08T07:35:42.736Z,9.20
2019-01-08T07:38:11.235Z,7.87
2019-01-08T07:40:41.392Z,12.43
2019-01-08T07:43:10.134Z,10.17
2019-01-08T07:45:38.732Z,11.80
2019-01-08T07:48:07.146Z,12.30
2019-01-08T07:50:35.267Z,12.27
2019-01-08T07:53:03.381Z,12.83
2019-01-08T07:55:32.032Z,9.50
2019-01-08T07:58:00.177Z,12.50
2019-01-08T08:00:29.090Z,13.63
2019-01-08T08:02:57.981Z,11.33
2019-01-08T08:05:26.497Z,12.80
2019-01-08T08:07:54.580Z,10.90
2019-01-08T08:10:23.121Z,8.33
2019-01-08T08:12:51.324Z,9.73
2019-01-08T08:15:19.384Z,6.53
2019-01-08T08:17:47.512Z,9.47
2019-01-08T08:20:15.803Z,8.53
2019-01-08T08:22:43.869Z,12.70
2019-01-08T08:25:13.558Z,8.47
2019-01-08T08:27:41.756Z,9.73
2019-01-08T08:30:09.979Z,8.60
2019-01-08T08:32:38.445Z,7.07
2019-01-08T08:35:08.642Z,7.53
2019-01-08T08:37:36.662Z,7.43
2019-01-08T08:40:06.191Z,8.50
2019-01-08T08:42:34.390Z,7.60
2019-01-08T08:45:02.586Z,8.10
2019-01-08T08:47:30.664Z,7.33
2019-01-08T08:49:59.322Z,7.67
2019-01-08T08:52:27.424Z,7.43
2019-01-08T08:54:55.909Z,12.77
2019-01-08T08:57:23.997Z,15.20
2019-01-08T08:59:52.130Z,17.47
2019-01-08T09:02:20.235Z,25.80
2019-01-08T09:04:48.369Z,17.53
2019-01-08T09:07:16.446Z,18.17
2019-01-08T09:09:44.579Z,14.87
2019-01-08T09:12:12.653Z,14.23
2019-01-08T09:14:40.832Z,15.80
2019-01-08T09:17:08.933Z,18.10
2019-01-08T09:19:37.164Z,21.97
2019-01-08T09:22:05.712Z,15.37
2019-01-08T09:24:33.814Z,12.33
2019-01-08T09:27:01.934Z,12.10
2019-01-08T09:29:31.746Z,12.30
2019-01-08T09:31:59.951Z,15.83
2019-01-08T09:34:28.050Z,9.70
2019-01-08T09:36:56.533Z,10.73
2019-01-08T09:39:24.611Z,11.33
2019-01-08T09:41:52.749Z,12.47
2019-01-08T09:44:20.826Z,21.10
2019-01-08T09:46:48.957Z,13.17
2019-01-08T09:49:17.105Z,15.70
2019-01-08T09:51:45.698Z,16.63
2019-01-08T09:54:13.809Z,11.53
2019-01-08T09:56:41.928Z,14.17
2019-01-08T09:59:10.026Z,11.97
2019-01-08T10:01:38.170Z,12.27
2019-01-08T10:04:06.275Z,12.27
2019-01-08T10:06:34.411Z,12.17
2019-01-08T10:09:02.797Z,11.37
2019-01-08T10:11:30.936Z,10.70
2019-01-08T10:13:59.002Z,9.33
2019-01-08T10:16:27.146Z,10.47
2019-01-08T10:18:55.215Z,13.80
2019-01-08T10:21:23.350Z,12.87
2019-01-08T10:23:51.537Z,13.60
2019-01-08T10:26:19.748Z,12.83
2019-01-08T10:28:47.852Z,13.00
2019-01-08T10:31:15.982Z,13.63
2019-01-08T10:33:44.066Z,9.27
2019-01-08T10:36:13.064Z,8.33
2019-01-08T10:38:41.497Z,8.47
2019-01-08T10:41:09.643Z,5.40
2019-01-08T10:43:37.719Z,4.77
2019-01-08T10:46:05.854Z,4.33
2019-01-08T10:48:33.937Z,4.73
2019-01-08T10:51:02.107Z,3.47
2019-01-08T10:53:30.234Z,3.93
2019-01-08T10:55:58.714Z,2.63
2019-01-08T10:58:26.802Z,2.30
2019-01-08T11:00:54.938Z,2.60
2019-01-08T11:03:23.057Z,2.57
2019-01-08T11:05:51.202Z,4.40
2019-01-08T11:08:19.276Z,2.83
2019-01-08T11:10:47.393Z,2.73
2019-01-08T11:13:15.469Z,2.93
2019-01-08T11:15:43.543Z,5.63
2019-01-08T11:18:11.668Z,5.10
2019-01-08T11:20:39.846Z,4.87
2019-01-08T11:23:07.976Z,2.97
2019-01-08T11:25:36.161Z,4.13
2019-01-08T11:28:04.398Z,4.00
2019-01-08T11:30:32.582Z,4.17
2019-01-08T11:33:00.705Z,3.23
2019-01-08T11:35:28.808Z,3.47
2019-01-08T11:37:56.941Z,3.43
2019-01-08T11:40:25.037Z,3.73
2019-01-08T11:42:53.169Z,3.73
2019-01-08T11:45:21.344Z,2.37
2019-01-08T11:47:50.757Z,3.37
2019-01-08T11:50:19.304Z,2.87
2019-01-08T11:52:48.024Z,3.10
2019-01-08T11:55:16.308Z,4.70
2019-01-08T11:57:44.441Z,2.93
2019-01-08T12:00:14.355Z,2.37
2019-01-08T12:02:47.748Z,3.20
2019-01-08T12:05:13.270Z,3.70
2019-01-08T12:07:41.401Z,3.60
2019-01-08T12:10:09.689Z,3.43
2019-01-08T12:12:37.836Z,4.00
2019-01-08T12:15:06.699Z,4.10
2019-01-08T12:17:34.820Z,3.27
2019-01-08T12:20:03.402Z,2.40
2019-01-08T12:22:31.526Z,2.90
2019-01-08T12:24:59.614Z,2.57
2019-01-08T12:27:27.733Z,2.00
2019-01-08T12:29:55.816Z,2.93
2019-01-08T12:32:23.963Z,2.80
2019-01-08T12:34:52.057Z,1.33
2019-01-08T12:37:20.184Z,1.33
2019-01-08T12:39:48.286Z,1.40
2019-01-08T12:42:16.801Z,1.93
2019-01-08T12:44:44.876Z,0.53
2019-01-08T12:47:13.017Z,1.17
2019-01-08T12:49:41.148Z,0.90
2019-01-08T12:52:09.329Z,1.30
2019-01-08T12:54:37.422Z,1.97
2019-01-08T12:57:05.492Z,0.80
2019-01-08T12:59:33.632Z,1.10
2019-01-08T13:02:01.809Z,1.97
2019-01-08T13:04:29.945Z,1.03
2019-01-08T13:06:58.045Z,0.33
2019-01-08T13:09:26.176Z,2.47
2019-01-08T13:11:54.250Z,0.93
2019-01-08T13:14:22.389Z,2.00
2019-01-08T13:16:50.461Z,0.73
2019-01-08T13:19:18.580Z,0.47
2019-01-08T13:21:46.755Z,0.80
2019-01-08T13:24:14.881Z,1.57
2019-01-08T13:26:42.958Z,0.77
2019-01-08T13:29:11.079Z,0.20
2019-01-08T13:31:39.141Z,1.90
2019-01-08T13:34:07.264Z,1.37
2019-01-08T13:36:35.358Z,0.30
2019-01-08T13:39:05.569Z,0.57
2019-01-08T13:41:33.741Z,1.20
2019-01-08T13:44:01.910Z,0.37
2019-01-08T13:46:30.029Z,0.40
2019-01-08T13:48:59.059Z,1.67
2019-01-08T13:51:27.186Z,0.67
2019-01-08T13:53:55.300Z,0.30
2019-01-08T13:56:24.073Z,0.77
2019-01-08T13:58:52.196Z,0.83
2019-01-08T14:01:20.275Z,2.90
2019-01-08T14:03:48.397Z,1.53
2019-01-08T14:06:16.474Z,0.57
2019-01-08T14:08:44.593Z,0.20
2019-01-08T14:11:12.697Z,0.50
2019-01-08T14:13:40.816Z,0.83
2019-01-08T14:16:08.909Z,0.50
2019-01-08T14:18:37.038Z,0.40
2019-01-08T14:21:05.226Z,0.70
2019-01-08T14:23:33.361Z,0.20
2019-01-08T14:26:01.432Z,0.33
2019-01-08T14:28:29.642Z,0.40
2019-01-08T14:30:58.105Z,0.33
2019-01-08T14:33:26.183Z,0.50
2019-01-08T14:35:54.407Z,0.10
2019-01-08T14:38:22.494Z,1.47
2019-01-08T14:40:51.604Z,0.87
2019-01-08T14:43:19.915Z,0.13
2019-01-08T14:45:48.026Z,0.50
2019-01-08T14:48:16.101Z,0.10
2019-01-08T14:50:44.222Z,0.10
2019-01-08T14:53:12.345Z,0.10
2019-01-08T14:55:40.473Z,0.10
2019-01-08T14:58:08.553Z,0.10
2019-01-08T15:00:36.682Z,0.10
2019-01-08T15:03:04.777Z,0.23
2019-01-08T15:05:32.904Z,0.20
2019-01-08T15:08:01.002Z,0.77
2019-01-08T15:10:29.129Z,0.20
2019-01-08T15:12:57.200Z,0.33
2019-01-08T15:15:25.561Z,0.53
2019-01-08T15:17:53.637Z,0.23
2019-01-08T15:20:21.764Z,0.20
2019-01-08T15:22:49.849Z,0.10
2019-01-08T15:25:17.994Z,1.60
2019-01-08T15:27:46.166Z,0.20
2019-01-08T15:30:14.300Z,0.50
2019-01-08T15:32:42.488Z,0.30
2019-01-08T15:35:10.625Z,0.10
2019-01-08T15:37:38.761Z,1.43
2019-01-08T15:40:07.106Z,1.23
2019-01-08T15:42:35.182Z,2.10
2019-01-08T15:45:03.869Z,0.10
2019-01-08T15:47:33.757Z,0.60
2019-01-08T15:50:01.892Z,0.30
2019-01-08T15:52:30.016Z,0.20
2019-01-08T15:54:58.589Z,1.40
2019-01-08T15:57:26.666Z,0.33
2019-01-08T15:59:54.830Z,0.37
2019-01-08T16:02:22.990Z,1.13
2019-01-08T16:04:51.136Z,0.77
2019-01-08T16:07:19.208Z,0.33
2019-01-08T16:09:48.844Z,0.20
2019-01-08T16:12:17.397Z,0.30
2019-01-08T16:14:45.478Z,0.23
2019-01-08T16:17:13.732Z,2.57
2019-01-08T16:19:41.816Z,0.43
2019-01-08T16:22:10.905Z,0.57
2019-01-08T16:24:38.968Z,1.60
2019-01-08T16:27:07.094Z,4.00
2019-01-08T16:29:35.270Z,0.43
2019-01-08T16:32:03.448Z,0.10
2019-01-08T16:34:31.529Z,0.07
2019-01-08T16:36:59.738Z,0.20
2019-01-08T16:39:28.177Z,0.20
2019-01-08T16:41:56.813Z,0.20
2019-01-08T16:44:24.952Z,4.30
2019-01-08T16:46:53.046Z,1.63
2019-01-08T16:49:21.351Z,0.97
2019-01-08T16:51:49.530Z,0.87
2019-01-08T16:54:18.530Z,2.00
2019-01-08T16:56:47.330Z,1.40
2019-01-08T16:59:15.486Z,1.40
2019-01-08T17:01:44.317Z,0.50
2019-01-08T17:04:13.684Z,1.20
2019-01-08T17:06:42.507Z,0.00
2019-01-08T17:09:12.084Z,0.97
2019-01-08T17:11:41.118Z,1.07
2019-01-08T17:14:10.037Z,0.50
2019-01-08T17:16:39.636Z,1.57
2019-01-08T17:19:08.587Z,0.60
2019-01-08T17:21:37.576Z,1.37
2019-01-08T17:24:06.519Z,2.17
2019-01-08T17:26:35.571Z,1.30
2019-01-08T17:29:04.490Z,2.30
2019-01-08T17:31:36.333Z,2.10
2019-01-08T17:34:05.283Z,1.33
2019-01-08T17:36:34.286Z,1.17
2019-01-08T17:39:04.455Z,2.50
2019-01-08T17:41:35.580Z,1.83
2019-01-08T17:44:04.501Z,1.30
2019-01-08T17:46:33.519Z,2.27
2019-01-08T17:49:02.409Z,1.17
2019-01-08T17:51:31.460Z,0.30
2019-01-08T17:54:00.457Z,0.37
2019-01-08T17:56:29.430Z,0.00
2019-01-08T17:59:11.760Z,0.50
2019-01-08T18:01:47.618Z,0.50
2019-01-08T18:04:16.967Z,0.87
2019-01-08T18:06:46.431Z,3.87
2019-01-08T18:09:15.371Z,0.50
2019-01-08T18:11:44.350Z,0.80
2019-01-08T18:14:13.294Z,9.17
2019-01-08T18:16:42.275Z,2.50
2019-01-08T18:19:11.181Z,0.70
2019-01-08T18:21:40.265Z,0.40
2019-01-08T18:24:09.965Z,0.63
2019-01-08T18:26:38.959Z,0.47
2019-01-08T18:29:08.348Z,1.17
2019-01-08T18:31:37.357Z,0.40
2019-01-08T18:34:06.270Z,0.77
2019-01-08T18:36:35.177Z,0.50
2019-01-08T18:39:06.415Z,0.97
2019-01-08T18:41:35.413Z,1.57
2019-01-08T18:44:04.331Z,0.53
2019-01-08T18:46:33.893Z,1.30
2019-01-08T18:49:03.336Z,0.30
2019-01-08T18:51:32.341Z,1.10
2019-01-08T18:54:01.808Z,1.07
2019-01-08T18:56:31.294Z,0.50
2019-01-08T18:59:00.597Z,0.37
2019-01-08T19:01:29.591Z,0.50
2019-01-08T19:03:59.979Z,0.50
2019-01-08T19:06:29.186Z,0.77
2019-01-08T19:09:37.982Z,2.03
2019-01-08T19:12:15.544Z,1.10
2019-01-08T19:14:44.605Z,1.13
2019-01-08T19:17:13.691Z,1.30
2019-01-08T19:19:41.837Z,0.50
2019-01-08T19:22:10.071Z,0.33
2019-01-08T19:24:38.151Z,0.33
2019-01-08T19:27:06.475Z,0.50
2019-01-08T19:29:34.549Z,0.53
2019-01-08T19:32:02.695Z,0.30
2019-01-08T19:34:32.019Z,0.73
2019-01-08T19:37:00.137Z,0.47
2019-01-08T19:39:28.219Z,0.53
2019-01-08T19:41:56.349Z,0.70
2019-01-08T19:44:24.435Z,0.90
2019-01-08T19:46:52.581Z,0.30
2019-01-08T19:49:20.759Z,0.77
2019-01-08T19:51:48.881Z,0.57
2019-01-08T19:54:17.437Z,0.40
2019-01-08T19:56:45.575Z,0.83
2019-01-08T19:59:13.649Z,0.37
2019-01-08T20:01:41.886Z,0.40
2019-01-08T20:04:17.492Z,0.63
2019-01-08T20:06:39.944Z,0.47
2019-01-08T20:09:08.943Z,0.20
2019-01-08T20:11:37.174Z,1.13
2019-01-08T20:14:06.587Z,0.33
2019-01-08T20:16:34.790Z,0.47
2019-01-08T20:19:02.984Z,1.17
2019-01-08T20:21:31.068Z,0.30
2019-01-08T20:24:06.329Z,1.20
2019-01-08T20:26:29.287Z,1.07
2019-01-08T20:28:57.404Z,0.67
2019-01-08T20:31:25.495Z,0.60
2019-01-08T20:33:53.713Z,1.70
2019-01-08T20:36:21.899Z,0.77
2019-01-08T20:38:50.020Z,1.83
2019-01-08T20:41:18.105Z,0.60
2019-01-08T20:43:46.227Z,0.93
2019-01-08T20:46:14.631Z,4.07
2019-01-08T20:48:44.066Z,1.70
2019-01-08T20:51:12.133Z,0.93
2019-01-08T20:53:40.313Z,0.60
2019-01-08T20:56:08.436Z,0.70
2019-01-08T20:58:36.566Z,0.53
2019-01-08T21:01:04.636Z,1.10
2019-01-08T21:03:32.785Z,2.93
2019-01-08T21:06:01.261Z,1.13
2019-01-08T21:08:29.397Z,0.97
2019-01-08T21:10:57.493Z,0.80
2019-01-08T21:13:25.619Z,0.53
2019-01-08T21:15:53.695Z,1.20
2019-01-08T21:18:21.818Z,2.50
2019-01-08T21:20:50.447Z,0.83
2019-01-08T21:23:24.640Z,2.33
2019-01-08T21:26:00.087Z,1.40
2019-01-08T21:28:38.096Z,1.43
2019-01-08T21:31:13.146Z,0.87
2019-01-08T21:33:51.535Z,1.30
2019-01-08T21:36:26.195Z,1.20
2019-01-08T21:38:59.448Z,1.20
2019-01-08T21:41:34.812Z,2.53
2019-01-08T21:44:08.681Z,2.33
2019-01-08T21:46:44.891Z,2.00
2019-01-08T21:49:18.237Z,1.20
2019-01-08T21:51:55.263Z,1.17
2019-01-08T21:54:28.544Z,0.80
2019-01-08T21:57:06.647Z,0.73
2019-01-08T21:59:39.743Z,1.27
2019-01-08T22:02:12.232Z,1.43
2019-01-08T22:04:52.716Z,2.03
2019-01-08T22:07:18.731Z,2.27
2019-01-08T22:09:50.697Z,2.53
2019-01-08T22:12:20.069Z,2.23
2019-01-08T22:14:51.436Z,1.37
2019-01-08T22:17:20.765Z,0.90
2019-01-08T22:19:49.084Z,0.90
2019-01-08T22:22:17.407Z,1.10
2019-01-08T22:24:45.612Z,1.93
2019-01-08T22:27:13.599Z,1.73
2019-01-08T22:29:41.656Z,2.23
2019-01-08T22:32:09.655Z,2.20
2019-01-08T22:34:37.719Z,1.10
2019-01-08T22:37:05.716Z,1.27
2019-01-08T22:39:34.075Z,3.07
2019-01-08T22:42:02.588Z,1.70
2019-01-08T22:44:31.598Z,0.87
2019-01-08T22:46:59.616Z,0.73
2019-01-08T22:49:28.043Z,2.60
2019-01-08T22:51:56.644Z,2.40
2019-01-08T22:54:24.734Z,1.20
2019-01-08T22:56:52.773Z,1.63
2019-01-08T22:59:22.108Z,2.53
2019-01-08T23:01:52.200Z,1.83
2019-01-08T23:04:21.705Z,1.03
2019-01-08T23:06:49.840Z,0.80
2019-01-08T23:09:18.320Z,3.53
2019-01-08T23:11:46.432Z,2.23
2019-01-08T23:14:15.617Z,1.63
2019-01-08T23:16:44.069Z,2.60
2019-01-08T23:19:12.061Z,3.17
2019-01-08T23:21:40.551Z,2.17
2019-01-08T23:24:08.729Z,1.80
2019-01-08T23:26:36.873Z,3.97
2019-01-08T23:29:05.155Z,3.27
2019-01-08T23:31:33.725Z,1.53
2019-01-08T23:34:01.804Z,1.40
2019-01-08T23:36:30.039Z,1.63
2019-01-08T23:38:58.209Z,1.63
2019-01-08T23:41:26.443Z,4.43
2019-01-08T23:43:55.000Z,1.43
2019-01-08T23:46:23.316Z,1.83
2019-01-08T23:48:51.451Z,3.70
2019-01-08T23:51:19.679Z,2.23
2019-01-08T23:53:50.165Z,1.80
2019-01-08T23:56:18.940Z,2.20
2019-01-08T23:58:47.119Z,2.73
